createdAt,value
2022-08-02T00:02:09.332Z,162.33
2022-08-02T00:07:41.373Z,162.33
2022-08-02T00:13:12.387Z,162.96
2022-08-02T00:18:44.350Z,163.28
2022-08-02T00:24:29.957Z,163.28
2022-08-02T00:29:52.925Z,164.73
2022-08-02T00:35:19.730Z,165.71
2022-08-02T00:40:55.295Z,163.76
2022-08-02T00:43:03.312Z,166.38
2022-08-02T00:48:35.139Z,166.54
2022-08-02T00:54:06.806Z,166.88
2022-08-02T00:59:38.708Z,166.38
2022-08-02T03:05:49.496Z,170.28
2022-08-02T03:11:21.116Z,168.73
2022-08-02T03:16:52.413Z,169.42
2022-08-02T03:22:23.884Z,171.51
2022-08-02T03:27:55.663Z,169.59
2022-08-02T03:33:27.525Z,168.39
2022-08-02T03:38:59.243Z,168.90
2022-08-02T03:44:31.059Z,168.90
2022-08-02T03:52:16.328Z,171.68
2022-08-02T03:57:47.938Z,171.68
2022-08-02T04:03:20.161Z,171.51
2022-08-02T04:11:12.931Z,172.57
2022-08-02T04:16:44.214Z,172.93
2022-08-02T04:22:15.687Z,172.75
2022-08-02T04:28:15.211Z,172.04
2022-08-02T04:33:19.307Z,170.63
2022-08-02T04:38:51.033Z,170.63
2022-08-02T04:44:22.833Z,170.80
2022-08-02T04:49:54.669Z,168.90
2022-08-02T04:55:26.160Z,167.54
2022-08-02T05:00:57.592Z,166.54
2022-08-02T05:06:29.552Z,164.73
2022-08-02T05:12:01.232Z,164.90
2022-08-02T05:17:33.068Z,165.06
2022-08-02T05:23:05.010Z,163.44
2022-08-02T05:28:36.680Z,163.28
2022-08-02T05:34:11.807Z,162.17
2022-08-02T05:39:55.385Z,161.08
2022-08-02T05:45:11.836Z,161.39
2022-08-02T05:50:43.414Z,158.32
2022-08-02T05:56:15.264Z,155.38
2022-08-02T06:06:29.240Z,152.96
2022-08-02T06:12:10.952Z,151.15
2022-08-02T06:19:53.631Z,146.51
2022-08-02T06:25:50.752Z,143.86
2022-08-02T06:30:56.957Z,136.00
2022-08-02T06:41:57.900Z,120.40
2022-08-02T06:47:29.426Z,114.46
2022-08-02T06:53:00.969Z,109.07
2022-08-02T06:58:32.558Z,106.22
2022-08-02T07:04:04.439Z,103.58
2022-08-02T07:09:36.121Z,100.41
2022-08-02T07:15:08.049Z,98.28
2022-08-02T07:20:39.774Z,95.90
2022-08-02T07:26:11.455Z,95.25
2022-08-02T07:31:43.143Z,95.11
2022-08-02T07:37:34.947Z,94.35
2022-08-02T07:42:46.017Z,92.26
2022-08-02T07:48:17.758Z,91.56
2022-08-02T07:53:50.786Z,91.16
2022-08-02T07:59:21.172Z,89.30
2022-08-02T08:04:52.722Z,89.69
2022-08-02T08:10:24.393Z,90.46
2022-08-02T08:15:56.326Z,88.73
2022-08-02T08:21:28.063Z,88.26
2022-08-02T08:26:59.910Z,88.36
2022-08-02T08:32:31.572Z,88.08
2022-08-02T08:38:07.430Z,87.99
2022-08-02T08:43:35.142Z,88.54
2022-08-02T08:49:07.591Z,88.92
2022-08-02T08:54:39.250Z,89.11
2022-08-02T09:00:11.319Z,87.71
2022-08-02T09:05:42.882Z,87.34
2022-08-02T09:11:14.674Z,88.26
2022-08-02T09:16:46.475Z,88.17
2022-08-02T09:27:49.821Z,88.73
2022-08-02T09:33:21.310Z,89.11
2022-08-02T09:38:53.001Z,90.27
2022-08-02T09:49:53.898Z,90.66
2022-08-02T10:00:55.255Z,93.93
2022-08-02T10:06:27.160Z,93.61
2022-08-02T10:11:58.741Z,94.03
2022-08-02T10:17:29.959Z,94.57
2022-08-02T10:23:01.408Z,95.32
2022-08-02T10:28:33.345Z,95.21
2022-08-02T10:34:05.045Z,94.67
2022-08-02T10:39:43.623Z,95.65
2022-08-02T10:45:14.517Z,95.76
2022-08-02T10:50:46.096Z,94.82
2022-08-02T10:58:36.918Z,97.99
2022-08-02T11:04:10.626Z,99.09
2022-08-02T11:09:39.948Z,99.15
2022-08-02T11:15:11.517Z,98.80
2022-08-02T11:20:43.363Z,98.22
2022-08-02T11:26:14.811Z,97.93
2022-08-02T11:31:46.252Z,97.93
2022-08-02T11:37:18.117Z,97.36
2022-08-02T11:42:50.012Z,98.39
2022-08-02T11:54:01.165Z,99.09
2022-08-02T11:59:32.896Z,98.51
2022-08-02T12:05:04.293Z,99.27
2022-08-02T12:10:35.576Z,99.21
2022-08-02T12:16:08.774Z,99.81
2022-08-02T12:21:38.868Z,100.11
2022-08-02T12:27:10.816Z,99.81
2022-08-02T12:32:42.510Z,98.98
2022-08-02T12:38:14.475Z,99.15
2022-08-02T12:43:46.007Z,98.80
2022-08-02T12:49:18.867Z,99.45
2022-08-02T12:54:49.716Z,98.86
2022-08-02T13:00:22.296Z,99.63
2022-08-02T13:05:57.608Z,99.93
2022-08-02T13:11:25.797Z,101.26
2022-08-02T13:16:57.513Z,100.22
2022-08-02T13:22:29.310Z,101.44
2022-08-02T13:28:00.902Z,102.50
2022-08-02T13:33:32.527Z,102.50
2022-08-02T13:39:04.146Z,102.50
2022-08-02T13:44:36.059Z,103.65
2022-08-02T13:50:07.782Z,104.43
2022-08-02T13:55:45.745Z,105.95
2022-08-02T14:01:17.413Z,107.11
2022-08-02T14:06:49.139Z,106.43
2022-08-02T14:12:20.919Z,106.70
2022-08-02T14:17:52.986Z,106.22
2022-08-02T14:34:34.856Z,108.01
2022-08-02T14:40:06.698Z,109.00
2022-08-02T14:45:40.760Z,108.86
2022-08-02T14:51:09.992Z,109.36
2022-08-02T14:56:41.870Z,109.93
2022-08-02T15:02:14.471Z,109.57
2022-08-02T15:13:17.383Z,109.21
2022-08-02T15:18:49.789Z,110.15
2022-08-02T15:24:21.721Z,109.07
2022-08-02T15:29:53.434Z,109.57
2022-08-02T15:35:25.088Z,108.86
2022-08-02T15:40:57.238Z,108.93
2022-08-02T15:46:30.943Z,108.93
2022-08-02T15:52:00.532Z,108.71
2022-08-02T15:57:32.379Z,110.44
2022-08-02T16:03:04.203Z,110.51
2022-08-02T16:08:36.440Z,111.25
2022-08-02T16:14:08.342Z,110.51
2022-08-02T16:19:49.503Z,111.47
2022-08-02T16:25:17.346Z,110.88
2022-08-02T16:30:54.188Z,110.22
2022-08-02T16:36:15.121Z,111.32
2022-08-02T16:41:53.009Z,109.86
2022-08-02T16:47:18.713Z,110.73
2022-08-02T16:52:50.499Z,110.59
2022-08-02T16:58:22.267Z,110.22
2022-08-02T17:03:57.071Z,110.00
2022-08-02T17:10:04.095Z,110.59
2022-08-02T17:14:57.813Z,111.03
2022-08-02T17:20:29.418Z,111.18
2022-08-02T17:26:01.294Z,110.95
2022-08-02T17:31:37.187Z,111.55
2022-08-02T17:37:05.915Z,111.40
2022-08-02T17:42:36.378Z,112.45
2022-08-02T17:48:08.025Z,112.91
2022-08-02T17:53:40.015Z,112.37
2022-08-02T17:59:12.210Z,112.15
2022-08-02T18:04:43.513Z,112.07
2022-08-02T18:10:15.574Z,112.00
2022-08-02T18:15:47.048Z,111.70
2022-08-02T18:21:22.649Z,111.85
2022-08-02T18:26:50.782Z,111.55
2022-08-02T18:33:55.016Z,110.81
2022-08-02T18:37:57.231Z,110.37
2022-08-02T18:43:29.596Z,110.73
2022-08-02T18:48:57.851Z,109.86
2022-08-02T18:54:30.977Z,109.93
2022-08-02T19:00:01.483Z,110.08
2022-08-02T19:05:52.092Z,110.00
2022-08-02T19:11:04.730Z,110.29
2022-08-02T19:16:37.724Z,111.03
2022-08-02T19:22:16.492Z,111.40
2022-08-02T19:27:40.125Z,111.55
2022-08-02T19:33:20.310Z,111.85
2022-08-02T19:38:44.416Z,111.92
2022-08-02T19:44:26.589Z,111.85
2022-08-02T19:49:48.752Z,113.75
2022-08-02T19:55:58.788Z,112.98
2022-08-02T20:00:50.439Z,113.68
2022-08-02T20:06:28.531Z,113.21
2022-08-02T20:11:55.230Z,113.60
2022-08-02T20:17:26.161Z,114.85
2022-08-02T20:22:57.905Z,115.40
2022-08-02T20:28:29.692Z,117.35
2022-08-02T20:34:01.329Z,116.13
2022-08-02T20:39:42.959Z,117.35
2022-08-02T20:45:04.892Z,118.77
2022-08-02T20:50:36.738Z,121.19
2022-08-02T20:56:12.692Z,120.75
2022-08-02T21:01:40.296Z,122.16
2022-08-02T21:07:13.053Z,124.53
2022-08-02T21:12:45.439Z,121.99
2022-08-02T21:18:29.406Z,122.43
2022-08-02T21:23:54.763Z,122.70
2022-08-02T21:29:21.748Z,123.25
2022-08-02T21:34:53.657Z,124.25
2022-08-02T21:40:25.729Z,124.44
2022-08-02T21:45:57.911Z,124.44
2022-08-02T21:51:34.287Z,124.07
2022-08-02T21:57:02.349Z,125.09
2022-08-02T22:02:34.102Z,126.23
2022-08-02T22:08:05.694Z,126.61
2022-08-02T22:13:38.861Z,127.78
2022-08-02T22:19:09.238Z,127.87
2022-08-02T22:24:41.224Z,128.56
2022-08-02T22:30:13.523Z,128.96
2022-08-02T22:35:45.787Z,130.99
2022-08-02T22:41:18.170Z,130.78
2022-08-02T22:46:50.557Z,133.39
2022-08-02T22:52:22.819Z,134.14
2022-08-02T22:57:57.135Z,134.14
2022-08-02T23:03:26.651Z,135.12
2022-08-02T23:08:58.509Z,136.56
2022-08-02T23:14:30.498Z,136.56
2022-08-02T23:20:02.472Z,138.26
2022-08-02T23:25:34.021Z,137.57
2022-08-02T23:31:06.126Z,138.72
2022-08-02T23:36:37.909Z,140.47
2022-08-02T23:42:09.886Z,140.23
2022-08-02T23:47:41.509Z,142.63
2022-08-02T23:53:13.530Z,142.87
2022-08-02T23:58:45.836Z,143.98
